createdAt,value
2022-08-28T00:01:28.270Z,100055.22
2022-08-28T00:06:50.070Z,100070.25
2022-08-28T00:12:11.928Z,100073.03
2022-08-28T00:17:33.766Z,100074.91
2022-08-28T00:22:56.326Z,100071.56
2022-08-28T00:28:24.263Z,100069.31
2022-08-28T00:33:48.189Z,100062.16
2022-08-28T00:39:10.164Z,100052.81
2022-08-28T00:44:32.337Z,100063.78
2022-08-28T00:49:55.673Z,100061.97
2022-08-28T00:55:20.803Z,100065.50
2022-08-28T01:00:42.994Z,100064.16
2022-08-28T01:06:06.751Z,100052.06
2022-08-28T01:11:29.328Z,100060.06
2022-08-28T01:16:53.076Z,100040.03
2022-08-28T01:22:27.152Z,100045.97
2022-08-28T01:27:48.972Z,100039.53
2022-08-28T01:33:10.925Z,100053.59
2022-08-28T01:38:34.055Z,100046.19
2022-08-28T01:43:55.895Z,100045.38
2022-08-28T01:49:18.177Z,100044.84
2022-08-28T01:54:40.119Z,100053.84
2022-08-28T02:00:02.848Z,100053.00
2022-08-28T02:05:27.014Z,100047.38
2022-08-28T02:10:48.892Z,100041.31
2022-08-28T02:16:10.865Z,100056.16
2022-08-28T02:21:32.810Z,100052.09
2022-08-28T02:26:54.618Z,100049.78
2022-08-28T02:32:16.555Z,100044.34
2022-08-28T02:37:38.408Z,100036.59
2022-08-28T02:43:00.251Z,100041.22
2022-08-28T02:48:22.109Z,100024.41
2022-08-28T02:53:44.106Z,100043.84
2022-08-28T02:59:05.934Z,100039.69
2022-08-28T03:04:27.749Z,100047.75
2022-08-28T03:09:50.563Z,100045.38
2022-08-28T03:15:12.830Z,100046.03
2022-08-28T03:20:34.941Z,100044.81
2022-08-28T03:26:02.587Z,100036.84
2022-08-28T03:31:28.332Z,100034.75
2022-08-28T03:36:50.131Z,100026.53
2022-08-28T03:42:12.906Z,100028.91
2022-08-28T03:47:37.685Z,100050.78
2022-08-28T03:52:59.530Z,100059.34
2022-08-28T03:58:21.991Z,100056.78
2022-08-28T04:03:44.415Z,100063.59
2022-08-28T04:09:06.619Z,100070.22
2022-08-28T04:14:28.461Z,100057.38
2022-08-28T04:19:53.929Z,100070.34
2022-08-28T04:25:15.865Z,100059.13
2022-08-28T04:30:40.967Z,100047.81
2022-08-28T04:36:05.939Z,100056.25
2022-08-28T04:41:28.555Z,100047.44
2022-08-28T04:46:50.407Z,100051.28
2022-08-28T04:52:12.249Z,100061.63
2022-08-28T04:57:36.434Z,100049.38
2022-08-28T05:02:58.435Z,100058.34
2022-08-28T05:08:23.871Z,100062.88
2022-08-28T05:13:45.750Z,100053.47
2022-08-28T05:19:07.563Z,100053.63
2022-08-28T05:24:29.381Z,100066.91
2022-08-28T05:29:51.712Z,100073.34
2022-08-28T05:35:13.545Z,100071.38
2022-08-28T05:40:41.989Z,100075.19
2022-08-28T05:46:07.223Z,100068.66
2022-08-28T05:51:30.012Z,100072.97
2022-08-28T05:56:51.892Z,100082.03
2022-08-28T06:02:13.901Z,100082.47
2022-08-28T06:07:36.151Z,100085.66
2022-08-28T06:12:57.982Z,100090.94
2022-08-28T06:18:19.941Z,100078.22
2022-08-28T06:23:41.782Z,100077.72
2022-08-28T06:29:07.076Z,100073.94
2022-08-28T06:34:29.019Z,100068.66
2022-08-28T06:39:50.823Z,100083.00
2022-08-28T06:45:12.732Z,100079.31
2022-08-28T06:50:38.960Z,100066.63
2022-08-28T06:56:03.954Z,100066.44
2022-08-28T07:01:30.113Z,100070.00
2022-08-28T07:06:54.630Z,100079.38
2022-08-28T07:12:18.023Z,100077.66
2022-08-28T07:17:39.744Z,100074.56
2022-08-28T07:23:01.603Z,100070.63
2022-08-28T07:28:23.463Z,100072.63
2022-08-28T07:33:45.864Z,100066.69
2022-08-28T07:39:09.039Z,100065.63
2022-08-28T07:44:30.818Z,100075.47
2022-08-28T07:49:52.646Z,100062.34
2022-08-28T07:55:14.516Z,100062.97
2022-08-28T08:00:36.344Z,100066.81
2022-08-28T08:06:03.514Z,100073.63
2022-08-28T08:11:26.380Z,100074.53
2022-08-28T08:16:54.247Z,100066.22
2022-08-28T08:22:16.157Z,100072.44
2022-08-28T08:27:42.797Z,100066.72
2022-08-28T08:33:05.077Z,100073.84
2022-08-28T08:38:29.975Z,100065.63
2022-08-28T08:44:13.243Z,100075.91
2022-08-28T08:49:36.614Z,100073.16
2022-08-28T08:55:16.744Z,100067.31
2022-08-28T09:01:05.102Z,100081.31
2022-08-28T09:06:43.588Z,100077.34
2022-08-28T09:12:13.880Z,100083.22
2022-08-28T09:17:41.411Z,100078.25
2022-08-28T09:23:12.724Z,100083.31
2022-08-28T09:28:39.390Z,100066.97
2022-08-28T09:34:23.810Z,100081.78
2022-08-28T09:39:48.752Z,100065.53
2022-08-28T09:45:17.787Z,100065.34
2022-08-28T09:50:40.544Z,100079.22
2022-08-28T09:56:25.352Z,100072.00
2022-08-28T10:01:51.292Z,100072.44
2022-08-28T10:07:54.881Z,100074.00
2022-08-28T10:13:35.227Z,100055.38
2022-08-28T10:19:12.079Z,100050.59
2022-08-28T10:25:19.001Z,100062.84
2022-08-28T10:31:10.505Z,100050.72
2022-08-28T10:36:35.252Z,100055.59
2022-08-28T10:42:03.855Z,100047.41
2022-08-28T10:47:29.127Z,100056.00
2022-08-28T10:53:02.731Z,100046.28
2022-08-28T10:58:27.112Z,100029.25
2022-08-28T11:03:51.244Z,100056.75
2022-08-28T11:09:29.411Z,100037.38
2022-08-28T11:14:51.556Z,100044.38
2022-08-28T11:20:24.254Z,100050.34
2022-08-28T11:25:57.650Z,100036.41
2022-08-28T11:31:31.733Z,100026.97
2022-08-28T11:36:59.638Z,100041.63
2022-08-28T11:42:34.407Z,100041.72
2022-08-28T11:47:56.211Z,100021.63
2022-08-28T11:53:50.410Z,100044.88
2022-08-28T11:59:47.387Z,100041.63
2022-08-28T12:05:37.775Z,100031.84
2022-08-28T12:10:59.685Z,100025.50
2022-08-28T12:16:21.573Z,100032.31
2022-08-28T12:21:43.684Z,100039.94
2022-08-28T12:27:07.989Z,100019.25
2022-08-28T12:32:51.476Z,100028.25
2022-08-28T12:38:20.185Z,100015.78
2022-08-28T12:43:46.784Z,100015.22
2022-08-28T12:49:37.167Z,100010.47
2022-08-28T12:54:59.011Z,100015.44
2022-08-28T13:00:29.240Z,99999.44
2022-08-28T13:06:02.679Z,99985.75
2022-08-28T13:11:24.619Z,99976.66
2022-08-28T13:16:47.247Z,99958.84
2022-08-28T13:22:33.451Z,99980.63
2022-08-28T13:27:58.007Z,99974.41
2022-08-28T13:33:24.814Z,99963.66
2022-08-28T13:38:46.642Z,99964.78
2022-08-28T13:44:09.238Z,99956.94
2022-08-28T13:49:31.031Z,99962.97
2022-08-28T13:54:52.839Z,99956.25
2022-08-28T14:00:15.399Z,99963.94
2022-08-28T14:05:37.206Z,99961.88
2022-08-28T14:10:59.486Z,99954.91
2022-08-28T14:16:21.295Z,99959.88
2022-08-28T14:21:43.188Z,99933.50
2022-08-28T14:27:05.051Z,99942.81
2022-08-28T14:32:27.129Z,99960.69
2022-08-28T14:37:48.973Z,99948.44
2022-08-28T14:43:13.744Z,99967.41
2022-08-28T14:48:35.682Z,99967.53
2022-08-28T14:53:59.357Z,99979.19
2022-08-28T14:59:28.005Z,99974.28
2022-08-28T15:04:49.873Z,99977.09
2022-08-28T15:10:11.713Z,99983.91
2022-08-28T15:15:33.514Z,99989.50
2022-08-28T15:20:55.818Z,99996.19
2022-08-28T15:26:18.812Z,100004.50
2022-08-28T15:31:43.695Z,99997.19
2022-08-28T15:37:07.899Z,100000.63
2022-08-28T15:42:29.994Z,99997.25
2022-08-28T15:47:52.281Z,99991.78
2022-08-28T15:53:15.022Z,99995.25
2022-08-28T15:58:40.011Z,99985.16
2022-08-28T16:04:01.928Z,99982.81
2022-08-28T16:09:23.860Z,99989.59
2022-08-28T16:14:45.666Z,99992.84
2022-08-28T16:20:13.040Z,99982.22
2022-08-28T16:25:35.540Z,100000.75
2022-08-28T16:30:57.584Z,100002.47
2022-08-28T16:36:19.520Z,100010.63
2022-08-28T16:41:45.515Z,100008.66
2022-08-28T16:47:07.465Z,100012.72
2022-08-28T16:52:29.368Z,100019.41
2022-08-28T16:57:52.270Z,100017.00
2022-08-28T17:03:14.113Z,100024.44
2022-08-28T17:08:44.877Z,100024.78
2022-08-28T17:14:06.786Z,100026.59
2022-08-28T17:19:28.685Z,100031.03
2022-08-28T17:24:50.786Z,100032.38
2022-08-28T17:30:14.733Z,100043.16
2022-08-28T17:35:42.049Z,100057.22
2022-08-28T17:41:04.318Z,100045.09
2022-08-28T17:46:26.245Z,100056.16
2022-08-28T17:51:49.168Z,100085.97
2022-08-28T17:57:10.979Z,100105.41
2022-08-28T18:02:32.782Z,100114.53
2022-08-28T18:07:54.634Z,100113.38
2022-08-28T18:13:16.938Z,100124.50
2022-08-28T18:18:38.778Z,100128.22
2022-08-28T18:24:00.697Z,100109.88
2022-08-28T18:29:22.485Z,100111.44
2022-08-28T18:34:46.552Z,100096.06
2022-08-28T18:40:08.843Z,100091.50
2022-08-28T18:45:31.277Z,100112.72
2022-08-28T18:50:53.193Z,100111.50
2022-08-28T18:56:16.419Z,100115.38
2022-08-28T19:01:39.140Z,100124.25
2022-08-28T19:07:01.157Z,100104.53
2022-08-28T19:12:24.719Z,100134.78
2022-08-28T19:17:46.550Z,100119.88
2022-08-28T19:23:08.387Z,100128.63
2022-08-28T19:28:30.209Z,100128.63
2022-08-28T19:33:52.070Z,100125.69
2022-08-28T19:39:14.220Z,100118.06
2022-08-28T19:44:38.329Z,100128.47
2022-08-28T19:50:00.235Z,100126.59
2022-08-28T19:55:25.749Z,100130.41
2022-08-28T20:00:47.587Z,100129.28
2022-08-28T20:06:09.411Z,100127.22
2022-08-28T20:11:31.267Z,100119.03
2022-08-28T20:16:53.969Z,100105.06
2022-08-28T20:22:16.573Z,100114.63
2022-08-28T20:27:38.449Z,100112.81
2022-08-28T20:33:00.349Z,100112.28
2022-08-28T20:38:22.338Z,100111.53
2022-08-28T20:43:45.374Z,100091.50
2022-08-28T20:49:09.692Z,100110.56
2022-08-28T20:54:36.737Z,100106.06
2022-08-28T21:00:02.269Z,100105.28
2022-08-28T21:05:27.350Z,100111.38
2022-08-28T21:10:52.125Z,100105.72
2022-08-28T21:16:14.536Z,100101.13
2022-08-28T21:21:37.866Z,100088.22
2022-08-28T21:26:59.996Z,100108.63
2022-08-28T21:32:21.812Z,100117.25
2022-08-28T21:37:44.296Z,100129.16
2022-08-28T21:43:06.273Z,100118.63
2022-08-28T21:48:28.666Z,100137.19
2022-08-28T21:53:51.218Z,100150.63
2022-08-28T21:59:13.094Z,100154.25
2022-08-28T22:04:35.768Z,100165.72
2022-08-28T22:09:57.677Z,100172.16
2022-08-28T22:15:19.645Z,100169.78
2022-08-28T22:20:44.762Z,100170.56
2022-08-28T22:26:12.472Z,100163.13
2022-08-28T22:31:34.627Z,100172.97
2022-08-28T22:36:58.563Z,100172.69
2022-08-28T22:42:20.438Z,100171.09
2022-08-28T22:47:42.248Z,100184.84
2022-08-28T22:53:04.546Z,100183.75
2022-08-28T22:58:31.480Z,100173.66
2022-08-28T23:03:53.410Z,100171.69
2022-08-28T23:09:15.295Z,100190.69
2022-08-28T23:14:37.270Z,100219.41
2022-08-28T23:19:59.376Z,100233.53
2022-08-28T23:25:23.118Z,100225.56
2022-08-28T23:30:49.730Z,100218.25
2022-08-28T23:36:12.058Z,100202.84
2022-08-28T23:41:34.087Z,100186.97
2022-08-28T23:46:55.908Z,100167.06
2022-08-28T23:52:17.920Z,100160.97
2022-08-28T23:57:39.814Z,100152.84
